createdAt,value
2022-12-29T00:00:59.842Z,0.70
2022-12-29T00:01:59.791Z,0.70
2022-12-29T00:02:59.870Z,0.90
2022-12-29T00:03:59.790Z,0.80
2022-12-29T00:04:59.745Z,0.70
2022-12-29T00:05:59.745Z,0.70
2022-12-29T00:06:59.705Z,0.80
2022-12-29T00:07:59.700Z,0.60
2022-12-29T00:08:59.677Z,0.70
2022-12-29T00:09:59.667Z,0.70
2022-12-29T00:10:59.657Z,0.70
2022-12-29T00:11:59.674Z,0.60
2022-12-29T00:12:59.654Z,0.60
2022-12-29T00:13:59.625Z,0.50
2022-12-29T00:14:59.606Z,0.70
2022-12-29T00:15:59.701Z,0.60
2022-12-29T00:16:59.606Z,0.60
2022-12-29T00:17:59.576Z,0.60
2022-12-29T00:18:59.564Z,0.70
2022-12-29T00:19:59.551Z,0.70
2022-12-29T00:20:59.558Z,0.50
2022-12-29T00:21:59.529Z,0.70
2022-12-29T00:22:59.563Z,0.60
2022-12-29T00:23:59.504Z,0.90
2022-12-29T00:24:59.505Z,0.50
2022-12-29T00:25:59.482Z,0.70
2022-12-29T00:26:59.483Z,0.60
2022-12-29T00:28:06.347Z,0.50
2022-12-29T00:28:59.439Z,0.60
2022-12-29T00:29:59.418Z,0.70
2022-12-29T00:30:59.428Z,0.60
2022-12-29T00:31:59.409Z,0.40
2022-12-29T00:32:59.382Z,0.50
2022-12-29T00:33:59.387Z,0.60
2022-12-29T00:34:59.386Z,0.50
2022-12-29T00:35:59.349Z,0.60
2022-12-29T00:36:59.331Z,0.50
2022-12-29T00:37:59.320Z,0.50
2022-12-29T00:38:59.323Z,0.70
2022-12-29T00:39:59.293Z,0.50
2022-12-29T00:40:59.297Z,0.50
2022-12-29T00:41:59.281Z,0.50
2022-12-29T00:42:59.271Z,0.50
2022-12-29T00:43:59.245Z,0.60
2022-12-29T00:44:59.229Z,0.60
2022-12-29T00:45:59.226Z,0.70
2022-12-29T00:46:59.264Z,0.60
2022-12-29T00:47:59.215Z,0.70
2022-12-29T00:48:59.199Z,0.60
2022-12-29T00:49:59.166Z,0.60
2022-12-29T00:50:59.161Z,0.50
2022-12-29T00:51:59.138Z,0.40
2022-12-29T00:52:59.142Z,0.40
2022-12-29T00:53:59.158Z,0.50
2022-12-29T00:54:59.117Z,0.60
2022-12-29T00:55:59.095Z,0.40
2022-12-29T00:56:59.090Z,0.60
2022-12-29T00:57:59.088Z,0.40
2022-12-29T00:58:59.098Z,0.60
2022-12-29T00:59:59.065Z,0.50
2022-12-29T01:00:59.115Z,0.60
2022-12-29T01:01:59.258Z,0.50
2022-12-29T01:02:59.315Z,0.50
2022-12-29T01:04:03.704Z,0.50
2022-12-29T01:04:59.039Z,0.50
2022-12-29T01:05:58.973Z,0.40
2022-12-29T01:06:58.961Z,0.50
2022-12-29T01:07:58.953Z,0.60
2022-12-29T01:08:58.934Z,0.60
2022-12-29T01:09:58.944Z,0.50
2022-12-29T01:10:58.919Z,0.70
2022-12-29T01:11:58.883Z,0.40
2022-12-29T01:12:58.871Z,0.40
2022-12-29T01:13:58.895Z,0.40
2022-12-29T01:14:58.851Z,0.40
2022-12-29T01:15:58.880Z,0.40
2022-12-29T01:16:58.823Z,0.50
2022-12-29T01:17:58.833Z,0.50
2022-12-29T01:18:58.792Z,0.50
2022-12-29T01:19:58.785Z,0.50
2022-12-29T01:20:58.772Z,0.40
2022-12-29T01:21:58.757Z,0.60
2022-12-29T01:22:58.759Z,0.60
2022-12-29T01:23:58.742Z,0.50
2022-12-29T01:24:58.725Z,0.40
2022-12-29T01:25:58.710Z,0.50
2022-12-29T01:26:58.703Z,0.30
2022-12-29T01:27:58.689Z,0.50
2022-12-29T01:28:58.720Z,0.50
2022-12-29T01:29:58.689Z,0.50
2022-12-29T01:30:58.681Z,0.40
2022-12-29T01:31:58.668Z,0.50
2022-12-29T01:32:58.618Z,0.50
2022-12-29T01:33:58.631Z,0.50
2022-12-29T01:34:58.608Z,0.40
2022-12-29T01:35:58.593Z,0.40
2022-12-29T01:36:58.612Z,0.60
2022-12-29T01:37:58.566Z,0.60
2022-12-29T01:38:58.550Z,0.40
2022-12-29T01:39:58.543Z,0.60
2022-12-29T01:40:58.516Z,0.40
2022-12-29T01:41:58.554Z,0.50
2022-12-29T01:42:58.487Z,0.40
2022-12-29T01:43:58.488Z,0.50
2022-12-29T01:44:58.488Z,0.50
2022-12-29T01:45:58.567Z,0.40
2022-12-29T01:46:58.455Z,0.40
2022-12-29T01:47:58.447Z,0.40
2022-12-29T01:48:58.419Z,0.50
2022-12-29T01:49:58.426Z,0.40
2022-12-29T01:50:58.423Z,0.50
2022-12-29T01:51:58.382Z,0.50
2022-12-29T01:52:58.377Z,0.40
2022-12-29T01:53:58.357Z,0.40
2022-12-29T01:54:58.369Z,0.40
2022-12-29T01:55:58.342Z,0.40
2022-12-29T01:56:58.317Z,0.50
2022-12-29T01:57:58.304Z,0.30
2022-12-29T01:58:58.296Z,0.50
2022-12-29T01:59:58.300Z,0.40
2022-12-29T02:00:58.320Z,0.40
2022-12-29T02:01:58.354Z,0.60
2022-12-29T02:02:58.272Z,0.50
2022-12-29T02:03:58.236Z,0.60
2022-12-29T02:05:02.805Z,0.70
2022-12-29T02:05:58.204Z,0.30
2022-12-29T02:06:58.192Z,0.40
2022-12-29T02:07:58.189Z,0.40
2022-12-29T02:08:58.175Z,0.70
2022-12-29T02:09:58.149Z,0.50
2022-12-29T02:10:58.143Z,0.40
2022-12-29T02:11:58.115Z,0.60
2022-12-29T02:12:58.116Z,0.30
2022-12-29T02:14:00.084Z,0.60
2022-12-29T02:14:58.084Z,0.50
2022-12-29T02:15:58.159Z,0.40
2022-12-29T02:16:58.141Z,0.50
2022-12-29T02:17:58.050Z,0.40
2022-12-29T02:18:58.049Z,0.40
2022-12-29T02:19:58.013Z,0.30
2022-12-29T02:20:58.024Z,0.50
2022-12-29T02:21:57.994Z,0.80
2022-12-29T02:22:57.968Z,0.40
2022-12-29T02:23:57.973Z,0.40
2022-12-29T02:24:57.950Z,0.30
2022-12-29T02:25:57.978Z,0.40
2022-12-29T02:26:57.936Z,0.30
2022-12-29T02:27:57.919Z,0.50
2022-12-29T02:28:57.907Z,0.40
2022-12-29T02:29:57.895Z,0.30
2022-12-29T02:30:57.905Z,0.30
2022-12-29T02:31:57.917Z,0.60
2022-12-29T02:32:57.855Z,0.40
2022-12-29T02:33:57.886Z,0.50
2022-12-29T02:34:57.823Z,0.40
2022-12-29T02:35:57.801Z,0.50
2022-12-29T02:36:57.808Z,0.40
2022-12-29T02:37:57.782Z,0.50
2022-12-29T02:38:57.779Z,0.50
2022-12-29T02:39:57.753Z,0.50
2022-12-29T02:40:57.745Z,0.60
2022-12-29T02:41:57.735Z,0.40
2022-12-29T02:42:57.731Z,0.60
2022-12-29T02:43:57.709Z,0.40
2022-12-29T02:44:57.715Z,0.50
2022-12-29T02:45:57.707Z,0.50
2022-12-29T02:46:57.673Z,0.40
2022-12-29T02:47:57.677Z,0.50
2022-12-29T02:48:57.635Z,0.50
2022-12-29T02:49:57.628Z,0.40
2022-12-29T02:50:57.628Z,0.40
2022-12-29T02:51:57.629Z,0.60
2022-12-29T02:52:57.608Z,0.50
2022-12-29T02:53:57.588Z,0.40
2022-12-29T02:54:57.604Z,0.40
2022-12-29T02:55:57.571Z,0.30
2022-12-29T02:56:57.547Z,0.40
2022-12-29T02:57:57.528Z,0.50
2022-12-29T02:58:57.525Z,0.60
2022-12-29T02:59:57.523Z,0.40
2022-12-29T03:00:57.561Z,0.50
2022-12-29T03:01:57.682Z,0.60
2022-12-29T03:02:57.654Z,0.40
2022-12-29T03:03:57.449Z,0.40
2022-12-29T03:04:57.454Z,0.40
2022-12-29T03:05:57.432Z,0.50
2022-12-29T03:06:57.423Z,0.50
2022-12-29T03:07:57.405Z,0.40
2022-12-29T03:08:57.399Z,0.50
2022-12-29T03:09:57.432Z,0.50
2022-12-29T03:10:57.367Z,0.50
2022-12-29T03:11:57.368Z,0.40
2022-12-29T03:12:57.355Z,0.40
2022-12-29T03:13:57.327Z,0.70
2022-12-29T03:14:57.314Z,0.50
2022-12-29T03:15:57.301Z,0.50
2022-12-29T03:16:57.321Z,0.60
2022-12-29T03:17:57.289Z,0.50
2022-12-29T03:18:57.276Z,0.50
2022-12-29T03:19:57.240Z,0.60
2022-12-29T03:20:57.242Z,0.50
2022-12-29T03:21:57.224Z,0.70
2022-12-29T03:22:57.215Z,0.50
2022-12-29T03:23:57.211Z,0.60
2022-12-29T03:24:57.194Z,0.50
2022-12-29T03:25:57.173Z,0.50
2022-12-29T03:26:57.170Z,0.50
2022-12-29T03:27:57.163Z,0.40
2022-12-29T03:28:57.141Z,0.60
2022-12-29T03:29:57.131Z,0.40
2022-12-29T03:30:57.184Z,0.60
2022-12-29T03:31:57.096Z,0.50
2022-12-29T03:32:57.111Z,0.60
2022-12-29T03:33:57.091Z,0.50
2022-12-29T03:34:57.052Z,0.50
2022-12-29T03:35:57.057Z,0.60
2022-12-29T03:36:57.038Z,0.50
2022-12-29T03:37:57.013Z,0.60
2022-12-29T03:38:57.026Z,0.50
2022-12-29T03:39:56.993Z,0.50
2022-12-29T03:40:56.976Z,0.50
2022-12-29T03:41:56.957Z,0.50
2022-12-29T03:42:56.959Z,0.50
2022-12-29T03:43:56.931Z,0.60
2022-12-29T03:44:56.928Z,0.40
2022-12-29T03:45:56.933Z,0.40
2022-12-29T03:46:56.925Z,0.40
2022-12-29T03:47:56.904Z,0.50
2022-12-29T03:48:56.870Z,0.60
2022-12-29T03:49:56.861Z,0.40
2022-12-29T03:50:56.845Z,0.50
2022-12-29T03:51:56.832Z,0.50
2022-12-29T03:52:56.831Z,0.40
2022-12-29T03:53:56.818Z,0.50
2022-12-29T03:54:56.805Z,0.50
2022-12-29T03:55:56.775Z,0.40
2022-12-29T03:56:56.773Z,0.40
2022-12-29T03:57:56.752Z,0.40
2022-12-29T03:58:56.749Z,0.40
2022-12-29T03:59:56.748Z,0.40
2022-12-29T04:00:56.714Z,0.60
2022-12-29T04:01:56.872Z,0.50
2022-12-29T04:02:56.913Z,0.40
2022-12-29T04:03:56.682Z,0.50
2022-12-29T04:04:56.675Z,0.50
2022-12-29T04:05:56.653Z,0.50
2022-12-29T04:06:56.648Z,0.30
2022-12-29T04:07:56.623Z,0.50
2022-12-29T04:08:56.617Z,0.50
2022-12-29T04:09:56.600Z,0.50
2022-12-29T04:10:56.591Z,0.40
2022-12-29T04:11:56.569Z,0.40
2022-12-29T04:12:56.561Z,0.50
2022-12-29T04:13:56.560Z,0.40
2022-12-29T04:14:56.534Z,0.40
2022-12-29T04:15:56.582Z,0.50
2022-12-29T04:16:56.516Z,0.50
2022-12-29T04:17:56.497Z,0.50
2022-12-29T04:18:56.484Z,0.60
2022-12-29T04:19:56.472Z,0.50
2022-12-29T04:20:56.490Z,0.50
2022-12-29T04:21:56.442Z,0.80
2022-12-29T04:22:56.443Z,0.50
2022-12-29T04:23:56.424Z,0.40
2022-12-29T04:24:56.419Z,0.50
2022-12-29T04:25:56.394Z,0.40
2022-12-29T04:26:56.424Z,0.60
2022-12-29T04:27:56.390Z,0.40
2022-12-29T04:28:56.366Z,0.50
2022-12-29T04:29:56.341Z,0.40
2022-12-29T04:30:56.409Z,0.80
2022-12-29T04:31:56.327Z,0.50
2022-12-29T04:32:56.320Z,0.60
2022-12-29T04:33:56.309Z,0.50
2022-12-29T04:34:56.277Z,0.40
2022-12-29T04:35:56.275Z,0.50
2022-12-29T04:36:56.282Z,0.40
2022-12-29T04:37:56.247Z,0.40
2022-12-29T04:38:56.244Z,0.50
2022-12-29T04:39:56.235Z,0.50
2022-12-29T04:40:56.255Z,0.40
2022-12-29T04:41:56.248Z,0.50
2022-12-29T04:42:56.187Z,0.40
2022-12-29T04:43:56.182Z,0.50
2022-12-29T04:44:56.176Z,0.50
2022-12-29T04:45:56.255Z,0.60
2022-12-29T04:46:56.255Z,0.40
2022-12-29T04:47:56.145Z,0.50
2022-12-29T04:48:56.119Z,0.40
2022-12-29T04:49:56.120Z,0.30
2022-12-29T04:50:56.103Z,0.60
2022-12-29T04:51:56.069Z,0.50
2022-12-29T04:52:56.078Z,0.40
2022-12-29T04:53:56.045Z,0.50
2022-12-29T04:54:56.038Z,0.50
2022-12-29T04:55:56.036Z,0.70
2022-12-29T04:56:56.007Z,0.50
2022-12-29T04:57:55.999Z,0.50
2022-12-29T04:58:56.005Z,0.60
2022-12-29T04:59:55.996Z,0.70
2022-12-29T05:00:55.990Z,0.50
2022-12-29T05:01:56.080Z,0.50
2022-12-29T05:02:56.151Z,0.70
2022-12-29T05:03:56.004Z,0.80
2022-12-29T05:04:55.901Z,0.40
2022-12-29T05:05:55.903Z,0.50
2022-12-29T05:06:55.890Z,0.50
2022-12-29T05:07:55.862Z,0.50
2022-12-29T05:08:55.854Z,0.50
2022-12-29T05:09:55.835Z,0.60
2022-12-29T05:10:55.849Z,0.50
2022-12-29T05:11:55.813Z,0.60
2022-12-29T05:12:55.799Z,0.70
2022-12-29T05:13:55.799Z,0.50
2022-12-29T05:14:55.768Z,0.40
2022-12-29T05:15:55.941Z,0.60
2022-12-29T05:16:55.771Z,0.60
2022-12-29T05:17:55.743Z,0.60
2022-12-29T05:18:55.740Z,0.90
2022-12-29T05:19:55.717Z,0.40
2022-12-29T05:20:55.720Z,0.70
2022-12-29T05:21:55.706Z,0.40
2022-12-29T05:22:55.689Z,0.50
2022-12-29T05:23:55.667Z,0.50
2022-12-29T05:24:55.671Z,0.40
2022-12-29T05:25:55.649Z,0.50
2022-12-29T05:26:55.665Z,0.60
2022-12-29T05:27:55.610Z,0.60
2022-12-29T05:28:55.598Z,0.50
2022-12-29T05:29:55.591Z,0.40
2022-12-29T05:30:55.775Z,0.50
2022-12-29T05:31:55.606Z,0.50
2022-12-29T05:32:55.562Z,0.50
2022-12-29T05:33:55.541Z,0.40
2022-12-29T05:34:55.521Z,0.60
2022-12-29T05:35:55.526Z,0.50
2022-12-29T05:36:55.512Z,0.40
2022-12-29T05:37:55.477Z,0.40
2022-12-29T05:38:55.469Z,0.40
2022-12-29T05:39:55.456Z,0.40
2022-12-29T05:40:55.443Z,0.60
2022-12-29T05:41:55.441Z,0.40
2022-12-29T05:42:55.433Z,0.40
2022-12-29T05:43:55.414Z,0.50
2022-12-29T05:44:55.410Z,0.50
2022-12-29T05:45:55.387Z,0.50
2022-12-29T05:46:55.509Z,0.50
2022-12-29T05:47:55.408Z,0.60
2022-12-29T05:48:55.350Z,0.70
2022-12-29T05:49:55.340Z,0.40
2022-12-29T05:50:55.335Z,0.60
2022-12-29T05:51:55.347Z,0.60
2022-12-29T05:52:55.296Z,0.80
2022-12-29T05:53:55.314Z,0.60
2022-12-29T05:54:55.263Z,0.80
2022-12-29T05:55:55.255Z,1.30
2022-12-29T05:56:55.279Z,1.20
2022-12-29T05:57:55.250Z,0.80
2022-12-29T05:58:55.274Z,0.90
2022-12-29T05:59:55.204Z,0.80
2022-12-29T06:00:55.187Z,0.90
2022-12-29T06:01:55.336Z,0.80
2022-12-29T06:02:55.417Z,0.80
2022-12-29T06:03:55.247Z,0.60
2022-12-29T06:04:55.166Z,0.60
2022-12-29T06:05:55.219Z,0.60
2022-12-29T06:06:55.112Z,0.40
2022-12-29T06:07:55.103Z,0.70
2022-12-29T06:08:55.105Z,0.40
2022-12-29T06:09:55.090Z,0.60
2022-12-29T06:10:55.074Z,0.80
2022-12-29T06:11:55.044Z,0.70
2022-12-29T06:12:55.044Z,0.60
2022-12-29T06:13:55.033Z,0.50
2022-12-29T06:14:55.012Z,0.50
2022-12-29T06:15:55.042Z,0.60
2022-12-29T06:16:54.993Z,0.40
2022-12-29T06:17:54.979Z,0.50
2022-12-29T06:18:54.973Z,0.50
2022-12-29T06:19:54.947Z,0.50
2022-12-29T06:20:54.942Z,0.50
2022-12-29T06:21:54.959Z,0.60
2022-12-29T06:22:54.905Z,0.80
2022-12-29T06:23:54.904Z,0.70
2022-12-29T06:24:57.844Z,0.50
2022-12-29T06:25:54.873Z,0.70
2022-12-29T06:26:54.866Z,0.60
2022-12-29T06:27:54.864Z,0.50
2022-12-29T06:28:54.860Z,0.60
2022-12-29T06:29:54.820Z,0.80
2022-12-29T06:30:54.825Z,0.70
2022-12-29T06:31:54.845Z,0.70
2022-12-29T06:32:54.790Z,1.30
2022-12-29T06:33:54.770Z,0.60
2022-12-29T06:34:54.846Z,0.60
2022-12-29T06:35:54.747Z,0.50
2022-12-29T06:36:54.729Z,0.80
2022-12-29T06:37:54.719Z,0.70
2022-12-29T06:38:54.698Z,0.80
2022-12-29T06:39:54.693Z,0.80
2022-12-29T06:40:54.684Z,0.90
2022-12-29T06:41:54.665Z,0.80
2022-12-29T06:42:54.669Z,0.80
2022-12-29T06:43:54.637Z,0.80
2022-12-29T06:44:54.641Z,0.70
2022-12-29T06:45:54.660Z,0.50
2022-12-29T06:46:54.600Z,0.70
2022-12-29T06:47:54.592Z,1.20
2022-12-29T06:48:54.592Z,0.60
2022-12-29T06:49:54.569Z,0.60
2022-12-29T06:50:54.566Z,0.60
2022-12-29T06:51:54.560Z,0.60
2022-12-29T06:52:54.525Z,0.50
2022-12-29T06:53:54.513Z,0.40
2022-12-29T06:54:54.510Z,0.90
2022-12-29T06:55:54.505Z,0.60
2022-12-29T06:56:54.496Z,0.60
2022-12-29T06:57:54.467Z,0.60
2022-12-29T06:58:54.459Z,0.70
2022-12-29T06:59:54.441Z,0.80
2022-12-29T07:00:54.463Z,0.70
2022-12-29T07:01:54.628Z,0.70
2022-12-29T07:02:54.541Z,0.70
2022-12-29T07:03:54.389Z,0.70
2022-12-29T07:04:54.377Z,0.70
2022-12-29T07:05:54.361Z,0.70
2022-12-29T07:06:54.367Z,0.80
2022-12-29T07:07:54.346Z,0.80
2022-12-29T07:08:54.317Z,0.70
2022-12-29T07:09:54.319Z,0.70
2022-12-29T07:10:54.293Z,0.70
2022-12-29T07:11:54.304Z,0.60
2022-12-29T07:12:54.270Z,0.70
2022-12-29T07:13:54.256Z,0.70
2022-12-29T07:14:54.248Z,0.60
2022-12-29T07:15:54.260Z,0.70
2022-12-29T07:16:54.288Z,0.60
2022-12-29T07:17:54.214Z,0.80
2022-12-29T07:18:54.202Z,0.70
2022-12-29T07:19:54.178Z,0.70
2022-12-29T07:20:54.172Z,0.90
2022-12-29T07:21:54.180Z,0.80
2022-12-29T07:22:54.150Z,0.80
2022-12-29T07:23:54.139Z,0.90
2022-12-29T07:24:54.117Z,0.90
2022-12-29T07:25:54.109Z,1.00
2022-12-29T07:26:54.128Z,1.00
2022-12-29T07:27:54.089Z,1.10
2022-12-29T07:28:54.070Z,1.00
2022-12-29T07:29:54.053Z,1.10
2022-12-29T07:30:54.046Z,1.00
2022-12-29T07:31:54.116Z,1.10
2022-12-29T07:32:54.030Z,1.10
2022-12-29T07:33:54.023Z,1.30
2022-12-29T07:34:54.014Z,0.90
2022-12-29T07:35:54.051Z,1.10
2022-12-29T07:36:53.961Z,1.10
2022-12-29T07:37:53.966Z,0.80
2022-12-29T07:38:53.945Z,0.90
2022-12-29T07:39:53.930Z,0.90
2022-12-29T07:40:53.909Z,0.80
2022-12-29T07:41:56.166Z,1.00
2022-12-29T07:42:53.927Z,1.30
2022-12-29T07:43:53.881Z,0.70
2022-12-29T07:44:53.891Z,0.80
2022-12-29T07:45:53.871Z,0.70
2022-12-29T07:46:57.456Z,0.90
2022-12-29T07:47:53.848Z,0.90
2022-12-29T07:48:53.817Z,1.00
2022-12-29T07:49:53.808Z,0.80
2022-12-29T07:50:53.787Z,0.70
2022-12-29T07:51:53.775Z,0.70
2022-12-29T07:52:53.759Z,0.90
2022-12-29T07:53:53.777Z,0.90
2022-12-29T07:54:53.770Z,0.60
2022-12-29T07:55:53.719Z,0.70
2022-12-29T07:56:53.730Z,1.10
2022-12-29T07:57:53.717Z,0.90
2022-12-29T07:58:53.686Z,0.80
2022-12-29T07:59:53.675Z,1.00
2022-12-29T08:00:53.664Z,1.20
2022-12-29T08:01:53.765Z,1.00
2022-12-29T08:02:53.648Z,0.60
2022-12-29T08:03:57.288Z,0.90
2022-12-29T08:04:53.612Z,0.80
2022-12-29T08:05:53.602Z,0.70
2022-12-29T08:06:53.578Z,0.60
2022-12-29T08:07:53.566Z,0.70
2022-12-29T08:08:53.563Z,0.80
2022-12-29T08:09:53.550Z,0.60
2022-12-29T08:10:53.537Z,0.50
2022-12-29T08:11:53.532Z,0.70
2022-12-29T08:12:53.511Z,0.90
2022-12-29T08:13:53.489Z,0.80
2022-12-29T08:14:53.495Z,0.70
2022-12-29T08:15:53.535Z,0.60
2022-12-29T08:16:53.452Z,0.70
2022-12-29T08:17:53.453Z,0.80
2022-12-29T08:18:53.432Z,0.80
2022-12-29T08:19:53.429Z,0.80
2022-12-29T08:20:55.907Z,0.80
2022-12-29T08:21:53.387Z,0.80
2022-12-29T08:22:53.386Z,0.70
2022-12-29T08:23:53.375Z,0.60
2022-12-29T08:24:53.354Z,0.70
2022-12-29T08:25:53.359Z,0.90
2022-12-29T08:26:53.326Z,0.70
2022-12-29T08:27:53.359Z,0.70
2022-12-29T08:28:53.297Z,1.00
2022-12-29T08:29:53.338Z,0.90
2022-12-29T08:30:53.334Z,0.90
2022-12-29T08:31:53.264Z,0.70
2022-12-29T08:32:53.256Z,0.60
2022-12-29T08:33:53.237Z,0.80
2022-12-29T08:34:53.234Z,0.60
2022-12-29T08:35:53.234Z,0.70
2022-12-29T08:36:53.202Z,0.90
2022-12-29T08:37:53.184Z,0.70
2022-12-29T08:38:53.176Z,0.80
2022-12-29T08:39:53.155Z,0.60
2022-12-29T08:40:53.154Z,0.80
2022-12-29T08:41:53.148Z,0.60
2022-12-29T08:42:53.137Z,0.90
2022-12-29T08:43:53.111Z,0.90
2022-12-29T08:44:53.125Z,0.70
2022-12-29T08:45:53.088Z,0.60
2022-12-29T08:46:53.176Z,0.90
2022-12-29T08:47:53.079Z,0.60
2022-12-29T08:48:53.053Z,0.70
2022-12-29T08:49:53.061Z,1.00
2022-12-29T08:50:53.017Z,0.90
2022-12-29T08:51:53.037Z,0.90
2022-12-29T08:52:53.003Z,0.80
2022-12-29T08:53:52.989Z,1.20
2022-12-29T08:54:52.971Z,0.80
2022-12-29T08:55:52.957Z,0.80
2022-12-29T08:56:52.941Z,1.00
2022-12-29T08:57:52.947Z,0.70
2022-12-29T08:58:52.932Z,1.00
2022-12-29T08:59:52.919Z,0.70
2022-12-29T09:00:52.890Z,0.90
2022-12-29T09:01:53.062Z,1.10
2022-12-29T09:02:53.078Z,0.70
2022-12-29T09:04:52.921Z,0.90
2022-12-29T09:05:52.849Z,1.00
2022-12-29T09:06:52.818Z,0.60
2022-12-29T09:07:52.812Z,0.70
2022-12-29T09:08:52.788Z,0.60
2022-12-29T09:09:52.816Z,0.70
2022-12-29T09:10:52.760Z,0.70
2022-12-29T09:11:52.776Z,0.50
2022-12-29T09:12:52.735Z,0.60
2022-12-29T09:13:52.749Z,0.80
2022-12-29T09:14:52.748Z,0.60
2022-12-29T09:15:52.765Z,0.80
2022-12-29T09:16:52.693Z,0.90
2022-12-29T09:17:52.686Z,0.80
2022-12-29T09:18:52.681Z,0.80
2022-12-29T09:19:52.682Z,0.70
2022-12-29T09:20:52.660Z,0.60
2022-12-29T09:21:52.633Z,1.10
2022-12-29T09:22:52.627Z,0.90
2022-12-29T09:23:52.613Z,0.70
2022-12-29T09:24:52.603Z,0.60
2022-12-29T09:25:52.584Z,0.70
2022-12-29T09:26:52.566Z,0.50
2022-12-29T09:27:52.565Z,0.60
2022-12-29T09:28:52.540Z,0.70
2022-12-29T09:29:52.529Z,0.80
2022-12-29T09:30:52.569Z,0.80
2022-12-29T09:31:52.565Z,0.60
2022-12-29T09:32:55.258Z,0.90
2022-12-29T09:33:52.470Z,0.60
2022-12-29T09:34:52.471Z,0.90
2022-12-29T09:35:52.464Z,0.90
2022-12-29T09:36:52.476Z,1.00
2022-12-29T09:37:52.421Z,0.70
2022-12-29T09:38:52.421Z,0.80
2022-12-29T09:39:54.636Z,0.70
2022-12-29T09:40:52.400Z,0.80
2022-12-29T09:41:52.401Z,1.10
2022-12-29T09:42:52.375Z,0.60
2022-12-29T09:43:52.362Z,0.90
2022-12-29T09:44:52.334Z,1.00
2022-12-29T09:45:52.322Z,1.00
2022-12-29T09:46:52.404Z,0.80
2022-12-29T09:47:52.303Z,0.70
2022-12-29T09:48:52.290Z,0.80
2022-12-29T09:49:52.274Z,0.70
2022-12-29T09:50:52.257Z,0.80
2022-12-29T09:51:52.241Z,0.70
2022-12-29T09:52:52.249Z,0.70
2022-12-29T09:53:52.238Z,0.90
2022-12-29T09:54:59.761Z,0.70
2022-12-29T09:55:52.215Z,0.60
2022-12-29T09:56:52.174Z,0.70
2022-12-29T09:57:52.180Z,0.70
2022-12-29T09:58:52.157Z,0.70
2022-12-29T09:59:52.152Z,1.20
2022-12-29T10:00:55.484Z,0.80
2022-12-29T10:01:52.353Z,0.90
2022-12-29T10:02:52.265Z,0.80
2022-12-29T10:03:52.110Z,1.00
2022-12-29T10:04:52.228Z,0.80
2022-12-29T10:05:52.262Z,0.70
2022-12-29T10:07:52.542Z,0.70
2022-12-29T10:08:52.517Z,0.80
2022-12-29T10:10:20.143Z,0.80
2022-12-29T10:10:52.581Z,0.50
2022-12-29T10:11:54.749Z,0.60
2022-12-29T10:12:54.248Z,0.60
2022-12-29T10:13:52.184Z,0.60
2022-12-29T10:14:53.508Z,0.80
2022-12-29T10:15:52.186Z,0.50
2022-12-29T10:16:52.386Z,0.50
2022-12-29T10:17:52.853Z,0.80
2022-12-29T10:18:52.042Z,0.80
2022-12-29T10:19:51.946Z,0.60
2022-12-29T10:20:52.299Z,0.60
2022-12-29T10:21:52.422Z,0.60
2022-12-29T10:22:53.735Z,0.60
2022-12-29T10:23:52.296Z,0.70
2022-12-29T10:24:52.122Z,0.80
2022-12-29T10:25:52.224Z,0.70
2022-12-29T10:26:52.910Z,0.60
2022-12-29T10:27:52.659Z,0.80
2022-12-29T10:28:51.808Z,0.60
2022-12-29T10:29:51.761Z,0.50
2022-12-29T10:30:51.884Z,0.80
2022-12-29T10:31:52.356Z,0.80
2022-12-29T10:32:52.171Z,0.70
2022-12-29T10:33:51.978Z,0.70
2022-12-29T10:34:52.909Z,0.90
2022-12-29T10:35:52.120Z,0.60
2022-12-29T10:36:52.221Z,0.70
2022-12-29T10:37:51.675Z,1.10
2022-12-29T10:38:51.656Z,0.90
2022-12-29T10:39:51.648Z,0.80
2022-12-29T10:40:51.634Z,0.80
2022-12-29T10:41:51.620Z,0.80
2022-12-29T10:42:51.635Z,0.90
2022-12-29T10:43:51.596Z,0.90
2022-12-29T10:44:51.589Z,0.90
2022-12-29T10:45:51.623Z,0.90
2022-12-29T10:46:51.562Z,1.00
2022-12-29T10:47:51.544Z,0.80
2022-12-29T10:48:51.561Z,1.00
2022-12-29T10:49:51.512Z,0.60
2022-12-29T10:50:53.043Z,0.90
2022-12-29T10:51:51.490Z,0.90
2022-12-29T10:52:51.488Z,0.90
2022-12-29T10:53:51.498Z,0.90
2022-12-29T10:54:51.450Z,0.80
2022-12-29T10:55:51.459Z,0.80
2022-12-29T10:56:53.109Z,0.90
2022-12-29T10:57:51.429Z,0.80
2022-12-29T10:58:51.409Z,1.20
2022-12-29T10:59:51.409Z,0.90
2022-12-29T11:00:51.513Z,1.10
2022-12-29T11:01:51.754Z,0.90
2022-12-29T11:02:51.489Z,1.00
2022-12-29T11:03:51.350Z,1.10
2022-12-29T11:04:51.351Z,0.80
2022-12-29T11:05:51.339Z,0.90
2022-12-29T11:06:51.303Z,0.70
2022-12-29T11:07:51.311Z,0.80
2022-12-29T11:08:51.288Z,0.90
2022-12-29T11:09:51.279Z,0.90
2022-12-29T11:10:51.249Z,0.80
2022-12-29T11:11:51.237Z,0.70
2022-12-29T11:12:51.229Z,0.90
2022-12-29T11:13:51.223Z,0.80
2022-12-29T11:14:51.214Z,0.90
2022-12-29T11:15:51.214Z,0.90
2022-12-29T11:16:51.232Z,0.70
2022-12-29T11:17:51.173Z,0.70
2022-12-29T11:18:51.195Z,0.80
2022-12-29T11:19:51.163Z,0.90
2022-12-29T11:20:51.145Z,0.70
2022-12-29T11:21:51.129Z,1.00
2022-12-29T11:22:51.109Z,0.70
2022-12-29T11:23:51.099Z,0.70
2022-12-29T11:24:51.079Z,1.00
2022-12-29T11:25:51.088Z,0.80
2022-12-29T11:26:51.079Z,0.70
2022-12-29T11:27:51.063Z,0.70
2022-12-29T11:28:51.050Z,0.60
2022-12-29T11:29:51.018Z,0.70
2022-12-29T11:30:51.001Z,0.70
2022-12-29T11:31:51.050Z,0.70
2022-12-29T11:32:50.992Z,1.00
2022-12-29T11:33:50.972Z,0.80
2022-12-29T11:34:50.967Z,0.70
2022-12-29T11:35:50.953Z,1.00
2022-12-29T11:36:50.942Z,0.80
2022-12-29T11:37:50.924Z,0.80
2022-12-29T11:38:50.916Z,0.70
2022-12-29T11:39:50.929Z,0.90
2022-12-29T11:40:50.906Z,0.60
2022-12-29T11:41:50.872Z,0.60
2022-12-29T11:42:50.859Z,0.60
2022-12-29T11:43:50.882Z,0.60
2022-12-29T11:44:50.838Z,0.80
2022-12-29T11:45:50.848Z,0.80
2022-12-29T11:46:50.807Z,0.90
2022-12-29T11:47:50.815Z,0.80
2022-12-29T11:48:50.789Z,1.00
2022-12-29T11:49:50.812Z,0.50
2022-12-29T11:50:50.768Z,0.70
2022-12-29T11:51:50.747Z,1.20
2022-12-29T11:52:50.755Z,0.90
2022-12-29T11:53:50.735Z,1.00
2022-12-29T11:54:50.711Z,1.10
2022-12-29T11:55:50.701Z,0.90
2022-12-29T11:56:50.700Z,0.70
2022-12-29T11:57:50.683Z,0.80
2022-12-29T11:58:50.682Z,1.00
2022-12-29T11:59:50.656Z,0.80
2022-12-29T12:00:50.643Z,0.90
2022-12-29T12:01:50.696Z,0.90
2022-12-29T12:02:50.624Z,0.80
2022-12-29T12:03:50.824Z,1.00
2022-12-29T12:04:50.577Z,0.80
2022-12-29T12:05:50.565Z,0.70
2022-12-29T12:06:50.552Z,0.60
2022-12-29T12:07:50.543Z,0.70
2022-12-29T12:08:50.545Z,1.00
2022-12-29T12:09:50.547Z,1.00
2022-12-29T12:10:50.501Z,0.90
2022-12-29T12:11:50.491Z,0.90
2022-12-29T12:12:50.474Z,0.80
2022-12-29T12:13:50.467Z,0.50
2022-12-29T12:14:50.455Z,0.80
2022-12-29T12:15:56.127Z,0.80
2022-12-29T12:16:50.467Z,0.70
2022-12-29T12:17:50.426Z,0.90
2022-12-29T12:18:50.400Z,0.50
2022-12-29T12:19:50.397Z,0.70
2022-12-29T12:20:50.393Z,0.70
2022-12-29T12:21:50.361Z,0.60
2022-12-29T12:22:50.372Z,0.80
2022-12-29T12:23:50.338Z,0.70
2022-12-29T12:24:50.385Z,0.50
2022-12-29T12:25:50.316Z,0.50
2022-12-29T12:26:50.304Z,0.40
2022-12-29T12:27:50.281Z,0.50
2022-12-29T12:28:50.293Z,0.50
2022-12-29T12:29:50.261Z,0.60
2022-12-29T12:30:50.350Z,0.70
2022-12-29T12:31:50.238Z,0.50
2022-12-29T12:32:50.215Z,0.50
2022-12-29T12:33:50.209Z,0.50
2022-12-29T12:34:50.201Z,0.60
2022-12-29T12:35:50.187Z,0.80
2022-12-29T12:36:50.163Z,0.50
2022-12-29T12:37:50.170Z,0.40
2022-12-29T12:38:50.150Z,0.40
2022-12-29T12:39:50.136Z,0.60
2022-12-29T12:40:50.139Z,0.50
2022-12-29T12:41:50.108Z,0.50
2022-12-29T12:42:50.076Z,0.40
2022-12-29T12:43:50.102Z,0.50
2022-12-29T12:44:50.062Z,0.60
2022-12-29T12:45:50.043Z,0.60
2022-12-29T12:46:50.183Z,0.50
2022-12-29T12:47:50.012Z,0.60
2022-12-29T12:48:50.021Z,0.40
2022-12-29T12:49:50.035Z,0.80
2022-12-29T12:50:49.967Z,0.60
2022-12-29T12:51:49.966Z,0.40
2022-12-29T12:52:49.970Z,0.40
2022-12-29T12:53:49.947Z,0.60
2022-12-29T12:54:49.923Z,0.50
2022-12-29T12:55:49.946Z,0.80
2022-12-29T12:56:49.896Z,0.40
2022-12-29T12:57:49.916Z,0.40
2022-12-29T12:58:49.873Z,0.60
2022-12-29T12:59:49.868Z,0.60
2022-12-29T13:00:49.845Z,0.60
2022-12-29T13:01:49.932Z,0.50
2022-12-29T13:02:50.007Z,0.80
2022-12-29T13:03:49.833Z,0.80
2022-12-29T13:04:49.793Z,0.70
2022-12-29T13:05:49.767Z,0.90
2022-12-29T13:06:49.757Z,0.60
2022-12-29T13:07:49.765Z,0.70
2022-12-29T13:08:49.729Z,0.80
2022-12-29T13:09:49.713Z,0.40
2022-12-29T13:10:52.985Z,0.50
2022-12-29T13:11:49.680Z,1.00
2022-12-29T13:12:50.639Z,0.60
2022-12-29T13:13:51.348Z,0.70
2022-12-29T13:14:50.680Z,0.60
2022-12-29T13:15:50.495Z,0.50
2022-12-29T13:16:49.877Z,0.70
2022-12-29T13:17:49.604Z,0.50
2022-12-29T13:18:49.584Z,0.40
2022-12-29T13:19:49.590Z,0.60
2022-12-29T13:20:49.563Z,0.60